createdAt,value
2017-07-23T00:07:39.000Z,25.32
2017-07-23T00:17:39.000Z,25.4
2017-07-23T00:27:39.000Z,25.31
2017-07-23T00:37:39.000Z,25.3
2017-07-23T00:47:39.000Z,25.36
2017-07-23T00:57:39.000Z,25.31
2017-07-23T01:07:39.000Z,25.3
2017-07-23T01:17:39.000Z,25.29
2017-07-23T01:27:39.000Z,25.19
2017-07-23T01:37:40.000Z,25.15
2017-07-23T01:47:39.000Z,25.06
2017-07-23T01:57:39.000Z,25.04
2017-07-23T02:07:39.000Z,25.05
2017-07-23T02:17:40.000Z,25.02
2017-07-23T02:27:40.000Z,25.04
2017-07-23T02:37:40.000Z,24.99
2017-07-23T02:47:40.000Z,24.83
2017-07-23T02:57:41.000Z,24.76
2017-07-23T03:07:40.000Z,24.84
2017-07-23T03:17:40.000Z,24.81
2017-07-23T03:27:40.000Z,24.64
2017-07-23T03:37:40.000Z,24.68
2017-07-23T03:47:40.000Z,24.65
2017-07-23T03:57:40.000Z,24.56
2017-07-23T04:07:40.000Z,24.38
2017-07-23T04:17:40.000Z,24.38
2017-07-23T04:27:40.000Z,24.31
2017-07-23T04:37:40.000Z,24.32
2017-07-23T04:47:40.000Z,24.24
2017-07-23T04:57:40.000Z,24.37
2017-07-23T05:07:40.000Z,24.24
2017-07-23T05:17:40.000Z,24.22
2017-07-23T05:27:40.000Z,24.25
2017-07-23T05:37:40.000Z,24.26
2017-07-23T05:47:40.000Z,24.24
2017-07-23T05:57:40.000Z,24.11
2017-07-23T06:07:40.000Z,24.18
2017-07-23T06:17:40.000Z,24.07
2017-07-23T06:27:40.000Z,24.18
2017-07-23T06:37:40.000Z,23.92
2017-07-23T06:47:40.000Z,23.68
2017-07-23T06:57:40.000Z,23.58
2017-07-23T07:07:41.000Z,23.57
2017-07-23T07:17:40.000Z,23.46
2017-07-23T07:27:40.000Z,23.74
2017-07-23T07:37:40.000Z,23.69
2017-07-23T07:47:40.000Z,23.73
2017-07-23T07:57:40.000Z,23.54
2017-07-23T08:07:40.000Z,23.4
2017-07-23T08:17:40.000Z,23.51
2017-07-23T08:27:40.000Z,23.31
2017-07-23T08:37:40.000Z,23.86
2017-07-23T08:47:40.000Z,23.54
2017-07-23T08:57:40.000Z,23.36
2017-07-23T09:07:40.000Z,23.71
2017-07-23T09:17:40.000Z,23.92
2017-07-23T09:27:40.000Z,24.15
2017-07-23T09:37:40.000Z,24.12
2017-07-23T09:47:40.000Z,23.94
2017-07-23T09:57:40.000Z,23.94
2017-07-23T10:07:40.000Z,23.97
2017-07-23T10:17:40.000Z,23.96
2017-07-23T10:27:41.000Z,24.08
2017-07-23T10:37:41.000Z,23.95
2017-07-23T10:47:41.000Z,24.01
2017-07-23T10:57:41.000Z,24.32
2017-07-23T11:07:41.000Z,24.6
2017-07-23T11:17:41.000Z,24.07
2017-07-23T11:27:41.000Z,24.03
2017-07-23T11:37:41.000Z,24.23
2017-07-23T11:47:41.000Z,24.41
2017-07-23T12:07:41.000Z,24.06
2017-07-23T12:17:41.000Z,24.25
2017-07-23T12:27:41.000Z,24.33
2017-07-23T12:47:42.000Z,24.49
2017-07-23T12:57:41.000Z,24.47
2017-07-23T13:07:41.000Z,24.61
2017-07-23T13:17:41.000Z,24.15
2017-07-23T13:27:41.000Z,24.37
2017-07-23T13:37:41.000Z,24.6
2017-07-23T13:47:41.000Z,24.51
2017-07-23T13:57:41.000Z,24.21
2017-07-23T14:07:41.000Z,24.24
2017-07-23T14:17:41.000Z,24.21
2017-07-23T14:27:41.000Z,24.33
2017-07-23T14:37:41.000Z,24.5
2017-07-23T14:47:41.000Z,24.47
2017-07-23T14:57:41.000Z,24.32
2017-07-23T15:07:41.000Z,24.54
2017-07-23T15:17:41.000Z,24.17
2017-07-23T15:27:41.000Z,24.19
2017-07-23T15:37:41.000Z,24.02
2017-07-23T15:47:41.000Z,24.1
2017-07-23T15:57:41.000Z,24.06
2017-07-23T16:07:41.000Z,24.11
2017-07-23T16:17:41.000Z,23.78
2017-07-23T16:27:41.000Z,23.95
2017-07-23T16:37:41.000Z,24.13
2017-07-23T16:47:41.000Z,23.99
2017-07-23T16:57:41.000Z,24.11
2017-07-23T17:07:41.000Z,24.05
2017-07-23T17:17:41.000Z,24.02
2017-07-23T17:27:41.000Z,24
2017-07-23T17:37:41.000Z,24.13
2017-07-23T17:47:41.000Z,24.06
2017-07-23T17:57:41.000Z,24.17
2017-07-23T18:07:41.000Z,24.21
2017-07-23T18:17:41.000Z,24.21
2017-07-23T18:27:44.000Z,24.3
2017-07-23T18:37:41.000Z,24.32
2017-07-23T18:47:42.000Z,24.29
2017-07-23T18:57:42.000Z,24.27
2017-07-23T19:07:42.000Z,24.24
2017-07-23T19:17:42.000Z,24.22
2017-07-23T19:27:42.000Z,24.23
2017-07-23T19:37:42.000Z,24.23
2017-07-23T19:47:42.000Z,24.2
2017-07-23T19:57:42.000Z,24.19
2017-07-23T20:07:42.000Z,24.18
2017-07-23T20:17:42.000Z,24.16
2017-07-23T20:27:42.000Z,23.9
2017-07-23T20:37:42.000Z,23.61
2017-07-23T20:47:42.000Z,23.32
2017-07-23T20:57:42.000Z,23.65
2017-07-23T21:07:42.000Z,23.66
2017-07-23T21:17:42.000Z,23.69
2017-07-23T21:27:42.000Z,23.72
2017-07-23T21:37:42.000Z,23.75
2017-07-23T21:47:42.000Z,23.5
2017-07-23T21:57:42.000Z,23.46
2017-07-23T22:07:42.000Z,23.67
2017-07-23T22:17:42.000Z,23.72
2017-07-23T22:27:42.000Z,23.71
2017-07-23T22:37:42.000Z,23.57
2017-07-23T22:47:42.000Z,23.64
2017-07-23T22:57:42.000Z,23.63
2017-07-23T23:07:42.000Z,23.56
2017-07-23T23:17:42.000Z,23.53
2017-07-23T23:27:42.000Z,23.5
2017-07-23T23:37:42.000Z,23.5
2017-07-23T23:47:42.000Z,23.47
2017-07-23T23:57:42.000Z,23.47
